sensor_id;sensor_type;location;lat;lon;timestamp;P1;durP1;ratioP1;P2;durP2;ratioP2
6197;SDS011;3132;42.622;23.328;2023-05-15T00:00:00;13.67;;;12.67;;
6197;SDS011;3132;42.622;23.328;2023-05-15T00:02:25;13.43;;;12.43;;
6197;SDS011;3132;42.622;23.328;2023-05-15T00:04:51;13.77;;;12.70;;
6197;SDS011;3132;42.622;23.328;2023-05-15T00:07:17;12.27;;;11.37;;
6197;SDS011;3132;42.622;23.328;2023-05-15T00:09:42;13.07;;;12.07;;
6197;SDS011;3132;42.622;23.328;2023-05-15T00:12:08;12.13;;;11.33;;
6197;SDS011;3132;42.622;23.328;2023-05-15T00:14:33;12.67;;;11.57;;
6197;SDS011;3132;42.622;23.328;2023-05-15T00:16:59;12.33;;;11.53;;
6197;SDS011;3132;42.622;23.328;2023-05-15T00:19:24;11.50;;;10.70;;
6197;SDS011;3132;42.622;23.328;2023-05-15T00:21:50;11.50;;;10.70;;
6197;SDS011;3132;42.622;23.328;2023-05-15T00:24:16;12.23;;;11.07;;
6197;SDS011;3132;42.622;23.328;2023-05-15T00:26:41;12.27;;;11.43;;
6197;SDS011;3132;42.622;23.328;2023-05-15T00:29:07;12.53;;;11.73;;
6197;SDS011;3132;42.622;23.328;2023-05-15T00:31:32;11.67;;;10.77;;
6197;SDS011;3132;42.622;23.328;2023-05-15T00:33:58;12.10;;;11.17;;
6197;SDS011;3132;42.622;23.328;2023-05-15T00:36:24;12.03;;;11.20;;
6197;SDS011;3132;42.622;23.328;2023-05-15T00:38:50;12.07;;;11.37;;
6197;SDS011;3132;42.622;23.328;2023-05-15T00:41:15;10.80;;;10.00;;
6197;SDS011;3132;42.622;23.328;2023-05-15T00:43:42;12.37;;;11.57;;
6197;SDS011;3132;42.622;23.328;2023-05-15T00:46:09;11.90;;;11.20;;
6197;SDS011;3132;42.622;23.328;2023-05-15T00:48:37;12.23;;;11.33;;
6197;SDS011;3132;42.622;23.328;2023-05-15T00:51:03;10.23;;;9.53;;
6197;SDS011;3132;42.622;23.328;2023-05-15T00:53:29;10.73;;;10.03;;
6197;SDS011;3132;42.622;23.328;2023-05-15T00:55:55;11.63;;;10.93;;
6197;SDS011;3132;42.622;23.328;2023-05-15T00:58:22;11.33;;;10.53;;
6197;SDS011;3132;42.622;23.328;2023-05-15T01:00:48;12.37;;;11.47;;
6197;SDS011;3132;42.622;23.328;2023-05-15T01:03:15;11.07;;;10.43;;
6197;SDS011;3132;42.622;23.328;2023-05-15T01:05:41;11.03;;;10.33;;
6197;SDS011;3132;42.622;23.328;2023-05-15T01:08:11;11.03;;;10.43;;
6197;SDS011;3132;42.622;23.328;2023-05-15T01:10:43;10.50;;;9.80;;
6197;SDS011;3132;42.622;23.328;2023-05-15T01:13:11;10.73;;;10.13;;
6197;SDS011;3132;42.622;23.328;2023-05-15T01:15:38;11.20;;;10.50;;
6197;SDS011;3132;42.622;23.328;2023-05-15T01:18:05;11.05;;;10.27;;
6197;SDS011;3132;42.622;23.328;2023-05-15T01:20:33;10.43;;;9.83;;
6197;SDS011;3132;42.622;23.328;2023-05-15T01:29:00;11.27;;;10.47;;
6197;SDS011;3132;42.622;23.328;2023-05-15T01:31:30;10.80;;;10.20;;
6197;SDS011;3132;42.622;23.328;2023-05-15T01:34:02;11.07;;;10.37;;
6197;SDS011;3132;42.622;23.328;2023-05-15T01:36:33;11.63;;;10.93;;
6197;SDS011;3132;42.622;23.328;2023-05-15T01:39:02;10.97;;;10.37;;
6197;SDS011;3132;42.622;23.328;2023-05-15T01:44:05;11.63;;;10.93;;
6197;SDS011;3132;42.622;23.328;2023-05-15T01:46:37;11.00;;;10.30;;
6197;SDS011;3132;42.622;23.328;2023-05-15T01:49:06;11.50;;;10.80;;
6197;SDS011;3132;42.622;23.328;2023-05-15T01:51:35;11.90;;;11.13;;
6197;SDS011;3132;42.622;23.328;2023-05-15T01:54:03;11.70;;;10.87;;
6197;SDS011;3132;42.622;23.328;2023-05-15T01:56:30;11.87;;;10.97;;
6197;SDS011;3132;42.622;23.328;2023-05-15T01:58:56;11.87;;;11.23;;
6197;SDS011;3132;42.622;23.328;2023-05-15T02:01:25;11.47;;;10.67;;
6197;SDS011;3132;42.622;23.328;2023-05-15T02:03:51;12.63;;;11.47;;
6197;SDS011;3132;42.622;23.328;2023-05-15T02:06:18;11.00;;;10.40;;
6197;SDS011;3132;42.622;23.328;2023-05-15T02:08:45;11.30;;;10.57;;
6197;SDS011;3132;42.622;23.328;2023-05-15T02:11:12;11.43;;;10.73;;
6197;SDS011;3132;42.622;23.328;2023-05-15T02:13:38;11.20;;;10.60;;
6197;SDS011;3132;42.622;23.328;2023-05-15T02:16:05;11.47;;;10.73;;
6197;SDS011;3132;42.622;23.328;2023-05-15T02:18:31;10.77;;;10.07;;
6197;SDS011;3132;42.622;23.328;2023-05-15T02:20:56;12.27;;;11.37;;
6197;SDS011;3132;42.622;23.328;2023-05-15T02:23:24;11.17;;;10.57;;
6197;SDS011;3132;42.622;23.328;2023-05-15T02:34:48;11.13;;;10.53;;
6197;SDS011;3132;42.622;23.328;2023-05-15T02:37:21;11.47;;;10.57;;
6197;SDS011;3132;42.622;23.328;2023-05-15T02:39:51;12.47;;;11.67;;
6197;SDS011;3132;42.622;23.328;2023-05-15T02:42:18;10.97;;;10.27;;
6197;SDS011;3132;42.622;23.328;2023-05-15T02:44:45;10.90;;;10.30;;
6197;SDS011;3132;42.622;23.328;2023-05-15T02:47:12;11.03;;;10.33;;
6197;SDS011;3132;42.622;23.328;2023-05-15T02:49:39;10.60;;;10.00;;
6197;SDS011;3132;42.622;23.328;2023-05-15T02:52:04;11.10;;;10.40;;
6197;SDS011;3132;42.622;23.328;2023-05-15T02:54:30;11.37;;;10.77;;
6197;SDS011;3132;42.622;23.328;2023-05-15T02:56:56;10.43;;;9.83;;
6197;SDS011;3132;42.622;23.328;2023-05-15T02:59:21;11.60;;;10.67;;
6197;SDS011;3132;42.622;23.328;2023-05-15T03:01:47;12.17;;;11.37;;
6197;SDS011;3132;42.622;23.328;2023-05-15T03:04:13;11.63;;;10.83;;
6197;SDS011;3132;42.622;23.328;2023-05-15T03:06:39;11.87;;;11.27;;
6197;SDS011;3132;42.622;23.328;2023-05-15T03:09:04;10.73;;;10.13;;
6197;SDS011;3132;42.622;23.328;2023-05-15T03:11:29;11.67;;;10.87;;
6197;SDS011;3132;42.622;23.328;2023-05-15T03:13:55;11.20;;;10.47;;
6197;SDS011;3132;42.622;23.328;2023-05-15T03:16:20;10.53;;;9.83;;
6197;SDS011;3132;42.622;23.328;2023-05-15T03:18:46;11.47;;;10.73;;
6197;SDS011;3132;42.622;23.328;2023-05-15T03:21:11;10.63;;;10.03;;
6197;SDS011;3132;42.622;23.328;2023-05-15T03:23:37;10.53;;;10.03;;
6197;SDS011;3132;42.622;23.328;2023-05-15T03:26:02;9.93;;;9.43;;
6197;SDS011;3132;42.622;23.328;2023-05-15T03:28:28;11.50;;;10.70;;
6197;SDS011;3132;42.622;23.328;2023-05-15T03:30:53;10.30;;;9.70;;
6197;SDS011;3132;42.622;23.328;2023-05-15T03:33:19;11.77;;;10.97;;
6197;SDS011;3132;42.622;23.328;2023-05-15T03:35:44;11.30;;;10.37;;
6197;SDS011;3132;42.622;23.328;2023-05-15T03:38:11;10.33;;;9.73;;
6197;SDS011;3132;42.622;23.328;2023-05-15T03:40:37;10.60;;;10.10;;
6197;SDS011;3132;42.622;23.328;2023-05-15T03:43:03;10.97;;;10.37;;
6197;SDS011;3132;42.622;23.328;2023-05-15T03:45:29;11.83;;;11.03;;
6197;SDS011;3132;42.622;23.328;2023-05-15T03:47:54;11.73;;;10.93;;
6197;SDS011;3132;42.622;23.328;2023-05-15T03:50:19;10.43;;;9.87;;
6197;SDS011;3132;42.622;23.328;2023-05-15T03:52:45;11.17;;;10.57;;
6197;SDS011;3132;42.622;23.328;2023-05-15T03:55:11;11.17;;;10.37;;
6197;SDS011;3132;42.622;23.328;2023-05-15T03:57:36;10.60;;;9.93;;
6197;SDS011;3132;42.622;23.328;2023-05-15T04:00:02;11.50;;;10.70;;
6197;SDS011;3132;42.622;23.328;2023-05-15T04:02:33;11.87;;;10.87;;
6197;SDS011;3132;42.622;23.328;2023-05-15T04:04:59;11.63;;;10.83;;
6197;SDS011;3132;42.622;23.328;2023-05-15T04:07:24;12.40;;;11.33;;
6197;SDS011;3132;42.622;23.328;2023-05-15T04:09:49;10.67;;;10.00;;
6197;SDS011;3132;42.622;23.328;2023-05-15T04:12:15;11.63;;;10.83;;
6197;SDS011;3132;42.622;23.328;2023-05-15T04:14:40;11.67;;;10.87;;
6197;SDS011;3132;42.622;23.328;2023-05-15T04:17:06;11.33;;;10.63;;
6197;SDS011;3132;42.622;23.328;2023-05-15T04:19:31;11.47;;;10.67;;
6197;SDS011;3132;42.622;23.328;2023-05-15T04:21:56;12.27;;;11.47;;
6197;SDS011;3132;42.622;23.328;2023-05-15T04:24:22;14.37;;;13.27;;
6197;SDS011;3132;42.622;23.328;2023-05-15T04:26:47;14.00;;;12.90;;
6197;SDS011;3132;42.622;23.328;2023-05-15T04:29:13;14.40;;;13.07;;
6197;SDS011;3132;42.622;23.328;2023-05-15T04:31:38;12.40;;;11.50;;
6197;SDS011;3132;42.622;23.328;2023-05-15T04:34:03;12.90;;;12.10;;
6197;SDS011;3132;42.622;23.328;2023-05-15T04:36:29;12.40;;;11.50;;
6197;SDS011;3132;42.622;23.328;2023-05-15T04:38:55;12.43;;;11.67;;
6197;SDS011;3132;42.622;23.328;2023-05-15T04:41:21;12.60;;;11.70;;
6197;SDS011;3132;42.622;23.328;2023-05-15T04:43:46;13.23;;;12.33;;
6197;SDS011;3132;42.622;23.328;2023-05-15T04:46:11;13.53;;;12.53;;
6197;SDS011;3132;42.622;23.328;2023-05-15T04:48:37;13.80;;;12.80;;
6197;SDS011;3132;42.622;23.328;2023-05-15T04:51:02;13.40;;;12.60;;
6197;SDS011;3132;42.622;23.328;2023-05-15T04:53:28;12.80;;;11.70;;
6197;SDS011;3132;42.622;23.328;2023-05-15T04:55:53;11.13;;;10.43;;
6197;SDS011;3132;42.622;23.328;2023-05-15T04:58:18;11.03;;;10.33;;
6197;SDS011;3132;42.622;23.328;2023-05-15T05:00:44;11.37;;;10.63;;
6197;SDS011;3132;42.622;23.328;2023-05-15T05:03:09;11.77;;;10.97;;
6197;SDS011;3132;42.622;23.328;2023-05-15T05:05:35;11.03;;;10.33;;
6197;SDS011;3132;42.622;23.328;2023-05-15T05:08:00;11.50;;;10.60;;
6197;SDS011;3132;42.622;23.328;2023-05-15T05:10:26;13.40;;;11.93;;
6197;SDS011;3132;42.622;23.328;2023-05-15T05:12:51;12.03;;;11.27;;
6197;SDS011;3132;42.622;23.328;2023-05-15T05:15:17;11.40;;;10.70;;
6197;SDS011;3132;42.622;23.328;2023-05-15T05:17:42;12.73;;;11.53;;
6197;SDS011;3132;42.622;23.328;2023-05-15T05:20:08;12.63;;;11.70;;
6197;SDS011;3132;42.622;23.328;2023-05-15T05:22:34;11.73;;;11.00;;
6197;SDS011;3132;42.622;23.328;2023-05-15T05:24:59;13.30;;;12.30;;
6197;SDS011;3132;42.622;23.328;2023-05-15T05:27:25;11.90;;;11.07;;
6197;SDS011;3132;42.622;23.328;2023-05-15T05:29:51;13.60;;;12.67;;
6197;SDS011;3132;42.622;23.328;2023-05-15T05:32:18;15.40;;;14.20;;
6197;SDS011;3132;42.622;23.328;2023-05-15T05:34:43;16.43;;;14.97;;
6197;SDS011;3132;42.622;23.328;2023-05-15T05:37:09;15.63;;;14.40;;
6197;SDS011;3132;42.622;23.328;2023-05-15T05:39:34;15.10;;;13.80;;
6197;SDS011;3132;42.622;23.328;2023-05-15T05:42:00;16.43;;;14.93;;
6197;SDS011;3132;42.622;23.328;2023-05-15T05:44:25;16.57;;;14.87;;
6197;SDS011;3132;42.622;23.328;2023-05-15T05:46:51;15.67;;;14.30;;
6197;SDS011;3132;42.622;23.328;2023-05-15T05:49:16;13.83;;;12.63;;
6197;SDS011;3132;42.622;23.328;2023-05-15T05:51:43;13.37;;;12.43;;
6197;SDS011;3132;42.622;23.328;2023-05-15T05:54:09;13.53;;;12.53;;
6197;SDS011;3132;42.622;23.328;2023-05-15T05:56:35;13.93;;;12.97;;
6197;SDS011;3132;42.622;23.328;2023-05-15T05:59:00;14.13;;;12.83;;
6197;SDS011;3132;42.622;23.328;2023-05-15T06:01:26;14.60;;;13.33;;
6197;SDS011;3132;42.622;23.328;2023-05-15T06:03:51;15.07;;;13.87;;
6197;SDS011;3132;42.622;23.328;2023-05-15T06:06:17;14.80;;;13.60;;
6197;SDS011;3132;42.622;23.328;2023-05-15T06:08:42;14.23;;;13.03;;
6197;SDS011;3132;42.622;23.328;2023-05-15T06:11:08;14.53;;;13.43;;
6197;SDS011;3132;42.622;23.328;2023-05-15T06:13:33;14.63;;;13.43;;
6197;SDS011;3132;42.622;23.328;2023-05-15T06:15:59;15.27;;;14.17;;
6197;SDS011;3132;42.622;23.328;2023-05-15T06:18:25;14.10;;;12.80;;
6197;SDS011;3132;42.622;23.328;2023-05-15T06:20:50;15.17;;;13.67;;
6197;SDS011;3132;42.622;23.328;2023-05-15T06:23:17;14.13;;;13.13;;
6197;SDS011;3132;42.622;23.328;2023-05-15T06:25:42;15.50;;;14.30;;
6197;SDS011;3132;42.622;23.328;2023-05-15T06:28:08;13.43;;;12.53;;
6197;SDS011;3132;42.622;23.328;2023-05-15T06:30:33;12.77;;;11.90;;
6197;SDS011;3132;42.622;23.328;2023-05-15T06:32:58;11.20;;;10.50;;
6197;SDS011;3132;42.622;23.328;2023-05-15T06:35:24;12.73;;;11.50;;
6197;SDS011;3132;42.622;23.328;2023-05-15T06:37:50;10.77;;;10.07;;
6197;SDS011;3132;42.622;23.328;2023-05-15T06:40:17;11.20;;;10.50;;
6197;SDS011;3132;42.622;23.328;2023-05-15T06:42:42;12.07;;;11.27;;
6197;SDS011;3132;42.622;23.328;2023-05-15T06:45:08;11.00;;;10.20;;
6197;SDS011;3132;42.622;23.328;2023-05-15T06:47:34;12.40;;;11.57;;
6197;SDS011;3132;42.622;23.328;2023-05-15T06:49:59;11.13;;;10.43;;
6197;SDS011;3132;42.622;23.328;2023-05-15T06:52:25;11.40;;;10.70;;
6197;SDS011;3132;42.622;23.328;2023-05-15T06:54:50;11.73;;;10.93;;
6197;SDS011;3132;42.622;23.328;2023-05-15T06:57:16;11.00;;;10.20;;
6197;SDS011;3132;42.622;23.328;2023-05-15T06:59:42;13.63;;;12.47;;
6197;SDS011;3132;42.622;23.328;2023-05-15T07:02:07;12.50;;;11.53;;
6197;SDS011;3132;42.622;23.328;2023-05-15T07:04:33;13.60;;;12.30;;
6197;SDS011;3132;42.622;23.328;2023-05-15T07:06:58;11.50;;;10.70;;
6197;SDS011;3132;42.622;23.328;2023-05-15T07:09:24;12.07;;;10.97;;
6197;SDS011;3132;42.622;23.328;2023-05-15T07:11:49;12.83;;;11.93;;
6197;SDS011;3132;42.622;23.328;2023-05-15T07:14:14;13.47;;;12.30;;
6197;SDS011;3132;42.622;23.328;2023-05-15T07:16:40;16.63;;;14.93;;
6197;SDS011;3132;42.622;23.328;2023-05-15T07:19:07;15.17;;;13.67;;
6197;SDS011;3132;42.622;23.328;2023-05-15T07:21:33;14.37;;;13.23;;
6197;SDS011;3132;42.622;23.328;2023-05-15T07:23:58;14.93;;;13.40;;
6197;SDS011;3132;42.622;23.328;2023-05-15T07:26:24;15.03;;;13.73;;
6197;SDS011;3132;42.622;23.328;2023-05-15T07:28:50;14.10;;;13.00;;
6197;SDS011;3132;42.622;23.328;2023-05-15T07:31:15;15.37;;;13.97;;
6197;SDS011;3132;42.622;23.328;2023-05-15T07:33:41;13.43;;;12.23;;
6197;SDS011;3132;42.622;23.328;2023-05-15T07:36:06;13.40;;;12.30;;
6197;SDS011;3132;42.622;23.328;2023-05-15T07:38:32;14.07;;;12.97;;
6197;SDS011;3132;42.622;23.328;2023-05-15T07:40:57;14.83;;;13.70;;
6197;SDS011;3132;42.622;23.328;2023-05-15T07:43:22;16.93;;;15.23;;
6197;SDS011;3132;42.622;23.328;2023-05-15T07:45:48;19.27;;;17.47;;
6197;SDS011;3132;42.622;23.328;2023-05-15T07:48:17;15.37;;;14.03;;
6197;SDS011;3132;42.622;23.328;2023-05-15T07:50:44;15.30;;;13.70;;
6197;SDS011;3132;42.622;23.328;2023-05-15T07:53:11;17.03;;;15.27;;
6197;SDS011;3132;42.622;23.328;2023-05-15T07:55:37;16.80;;;15.30;;
6197;SDS011;3132;42.622;23.328;2023-05-15T07:58:02;16.63;;;15.03;;
6197;SDS011;3132;42.622;23.328;2023-05-15T08:00:27;16.07;;;14.57;;
6197;SDS011;3132;42.622;23.328;2023-05-15T08:02:53;16.20;;;14.73;;
6197;SDS011;3132;42.622;23.328;2023-05-15T08:05:18;19.23;;;17.30;;
6197;SDS011;3132;42.622;23.328;2023-05-15T08:07:44;18.37;;;16.77;;
6197;SDS011;3132;42.622;23.328;2023-05-15T08:10:09;18.00;;;16.10;;
6197;SDS011;3132;42.622;23.328;2023-05-15T08:12:35;15.60;;;14.20;;
6197;SDS011;3132;42.622;23.328;2023-05-15T08:15:01;16.90;;;13.87;;
6197;SDS011;3132;42.622;23.328;2023-05-15T08:17:26;18.10;;;16.03;;
6197;SDS011;3132;42.622;23.328;2023-05-15T08:19:52;24.57;;;21.03;;
6197;SDS011;3132;42.622;23.328;2023-05-15T08:22:17;25.17;;;22.77;;
6197;SDS011;3132;42.622;23.328;2023-05-15T08:24:43;22.93;;;19.57;;
6197;SDS011;3132;42.622;23.328;2023-05-15T08:27:09;19.57;;;16.87;;
6197;SDS011;3132;42.622;23.328;2023-05-15T08:29:35;19.13;;;17.23;;
6197;SDS011;3132;42.622;23.328;2023-05-15T08:32:00;21.10;;;18.80;;
6197;SDS011;3132;42.622;23.328;2023-05-15T08:34:26;22.63;;;17.63;;
6197;SDS011;3132;42.622;23.328;2023-05-15T08:36:52;21.27;;;18.00;;
6197;SDS011;3132;42.622;23.328;2023-05-15T08:39:17;22.33;;;18.90;;
6197;SDS011;3132;42.622;23.328;2023-05-15T08:41:57;22.47;;;19.40;;
6197;SDS011;3132;42.622;23.328;2023-05-15T08:44:29;28.27;;;19.83;;
6197;SDS011;3132;42.622;23.328;2023-05-15T08:46:56;21.77;;;19.50;;
6197;SDS011;3132;42.622;23.328;2023-05-15T08:49:26;26.83;;;20.60;;
6197;SDS011;3132;42.622;23.328;2023-05-15T08:51:53;26.87;;;24.20;;
6197;SDS011;3132;42.622;23.328;2023-05-15T08:54:19;25.20;;;19.43;;
6197;SDS011;3132;42.622;23.328;2023-05-15T08:56:45;20.97;;;18.57;;
6197;SDS011;3132;42.622;23.328;2023-05-15T08:59:11;24.37;;;18.67;;
6197;SDS011;3132;42.622;23.328;2023-05-15T09:01:37;23.47;;;19.33;;
6197;SDS011;3132;42.622;23.328;2023-05-15T09:04:02;21.37;;;18.27;;
6197;SDS011;3132;42.622;23.328;2023-05-15T09:06:28;22.20;;;19.90;;
6197;SDS011;3132;42.622;23.328;2023-05-15T09:08:55;23.17;;;20.67;;
6197;SDS011;3132;42.622;23.328;2023-05-15T09:11:23;23.10;;;19.20;;
6197;SDS011;3132;42.622;23.328;2023-05-15T09:13:50;30.83;;;22.37;;
6197;SDS011;3132;42.622;23.328;2023-05-15T09:16:17;29.93;;;20.80;;
6197;SDS011;3132;42.622;23.328;2023-05-15T09:18:45;24.83;;;19.30;;
6197;SDS011;3132;42.622;23.328;2023-05-15T09:21:22;26.57;;;19.93;;
6197;SDS011;3132;42.622;23.328;2023-05-15T09:23:52;25.67;;;20.00;;
6197;SDS011;3132;42.622;23.328;2023-05-15T09:26:19;22.20;;;17.33;;
6197;SDS011;3132;42.622;23.328;2023-05-15T09:28:46;20.30;;;18.10;;
6197;SDS011;3132;42.622;23.328;2023-05-15T09:31:12;18.80;;;16.80;;
6197;SDS011;3132;42.622;23.328;2023-05-15T09:33:38;21.70;;;18.07;;
6197;SDS011;3132;42.622;23.328;2023-05-15T09:36:05;16.27;;;14.67;;
6197;SDS011;3132;42.622;23.328;2023-05-15T09:38:42;17.23;;;15.53;;
6197;SDS011;3132;42.622;23.328;2023-05-15T09:41:11;15.23;;;13.63;;
6197;SDS011;3132;42.622;23.328;2023-05-15T09:43:37;16.13;;;14.77;;
6197;SDS011;3132;42.622;23.328;2023-05-15T09:46:03;14.63;;;13.33;;
6197;SDS011;3132;42.622;23.328;2023-05-15T09:48:30;16.17;;;14.47;;
6197;SDS011;3132;42.622;23.328;2023-05-15T09:50:56;16.37;;;14.67;;
6197;SDS011;3132;42.622;23.328;2023-05-15T09:53:22;15.17;;;13.87;;
6197;SDS011;3132;42.622;23.328;2023-05-15T09:55:48;15.93;;;14.43;;
6197;SDS011;3132;42.622;23.328;2023-05-15T09:58:16;14.30;;;13.10;;
6197;SDS011;3132;42.622;23.328;2023-05-15T10:00:42;14.67;;;13.40;;
6197;SDS011;3132;42.622;23.328;2023-05-15T10:03:10;14.10;;;12.97;;
6197;SDS011;3132;42.622;23.328;2023-05-15T10:05:36;14.43;;;13.23;;
6197;SDS011;3132;42.622;23.328;2023-05-15T10:08:02;14.87;;;13.37;;
6197;SDS011;3132;42.622;23.328;2023-05-15T10:10:28;16.93;;;15.37;;
6197;SDS011;3132;42.622;23.328;2023-05-15T10:12:55;17.07;;;15.33;;
6197;SDS011;3132;42.622;23.328;2023-05-15T10:15:23;14.43;;;13.23;;
6197;SDS011;3132;42.622;23.328;2023-05-15T10:17:50;16.50;;;14.97;;
6197;SDS011;3132;42.622;23.328;2023-05-15T10:20:18;15.37;;;13.97;;
6197;SDS011;3132;42.622;23.328;2023-05-15T10:22:45;15.53;;;14.13;;
6197;SDS011;3132;42.622;23.328;2023-05-15T10:25:17;16.33;;;14.60;;
6197;SDS011;3132;42.622;23.328;2023-05-15T10:27:47;15.77;;;14.17;;
6197;SDS011;3132;42.622;23.328;2023-05-15T10:30:14;17.93;;;15.90;;
6197;SDS011;3132;42.622;23.328;2023-05-15T10:32:41;16.87;;;15.17;;
6197;SDS011;3132;42.622;23.328;2023-05-15T10:35:09;16.07;;;14.57;;
6197;SDS011;3132;42.622;23.328;2023-05-15T10:37:35;17.47;;;15.77;;
6197;SDS011;3132;42.622;23.328;2023-05-15T10:40:03;18.57;;;15.60;;
6197;SDS011;3132;42.622;23.328;2023-05-15T10:42:31;20.03;;;16.40;;
6197;SDS011;3132;42.622;23.328;2023-05-15T10:44:58;19.00;;;16.60;;
6197;SDS011;3132;42.622;23.328;2023-05-15T10:47:26;17.60;;;15.83;;
6197;SDS011;3132;42.622;23.328;2023-05-15T10:49:54;17.33;;;15.37;;
6197;SDS011;3132;42.622;23.328;2023-05-15T10:52:19;16.60;;;14.90;;
6197;SDS011;3132;42.622;23.328;2023-05-15T10:54:45;22.20;;;16.50;;
6197;SDS011;3132;42.622;23.328;2023-05-15T10:57:10;21.40;;;15.83;;
6197;SDS011;3132;42.622;23.328;2023-05-15T10:59:35;19.97;;;17.13;;
6197;SDS011;3132;42.622;23.328;2023-05-15T11:04:53;18.80;;;16.70;;
6197;SDS011;3132;42.622;23.328;2023-05-15T11:07:20;20.07;;;18.07;;
6197;SDS011;3132;42.622;23.328;2023-05-15T11:09:48;18.47;;;16.63;;
6197;SDS011;3132;42.622;23.328;2023-05-15T11:12:14;19.50;;;16.63;;
6197;SDS011;3132;42.622;23.328;2023-05-15T11:17:24;22.87;;;17.47;;
6197;SDS011;3132;42.622;23.328;2023-05-15T11:22:28;21.73;;;17.57;;
6197;SDS011;3132;42.622;23.328;2023-05-15T11:35:13;18.10;;;16.17;;
6197;SDS011;3132;42.622;23.328;2023-05-15T11:37:47;22.93;;;16.10;;
6197;SDS011;3132;42.622;23.328;2023-05-15T11:40:58;19.63;;;17.67;;
6197;SDS011;3132;42.622;23.328;2023-05-15T11:43:31;18.23;;;16.13;;
6197;SDS011;3132;42.622;23.328;2023-05-15T11:48:45;18.13;;;16.33;;
6197;SDS011;3132;42.622;23.328;2023-05-15T11:51:15;16.93;;;15.37;;
6197;SDS011;3132;42.622;23.328;2023-05-15T11:53:45;17.27;;;15.50;;
6197;SDS011;3132;42.622;23.328;2023-05-15T11:56:19;17.80;;;16.17;;
6197;SDS011;3132;42.622;23.328;2023-05-15T11:58:56;16.57;;;14.87;;
6197;SDS011;3132;42.622;23.328;2023-05-15T12:01:23;15.73;;;14.23;;
6197;SDS011;3132;42.622;23.328;2023-05-15T12:03:49;17.47;;;15.83;;
6197;SDS011;3132;42.622;23.328;2023-05-15T12:06:16;21.30;;;15.97;;
6197;SDS011;3132;42.622;23.328;2023-05-15T12:08:41;16.93;;;15.33;;
6197;SDS011;3132;42.622;23.328;2023-05-15T12:11:07;18.10;;;16.10;;
6197;SDS011;3132;42.622;23.328;2023-05-15T12:13:33;17.00;;;15.33;;
6197;SDS011;3132;42.622;23.328;2023-05-15T12:16:00;17.80;;;15.30;;
6197;SDS011;3132;42.622;23.328;2023-05-15T12:18:27;19.00;;;16.93;;
6197;SDS011;3132;42.622;23.328;2023-05-15T12:20:52;17.90;;;16.23;;
6197;SDS011;3132;42.622;23.328;2023-05-15T12:23:22;18.10;;;16.23;;
6197;SDS011;3132;42.622;23.328;2023-05-15T12:25:49;18.73;;;16.77;;
6197;SDS011;3132;42.622;23.328;2023-05-15T12:28:19;16.97;;;15.43;;
6197;SDS011;3132;42.622;23.328;2023-05-15T12:30:45;17.90;;;16.10;;
6197;SDS011;3132;42.622;23.328;2023-05-15T12:33:11;16.57;;;15.07;;
6197;SDS011;3132;42.622;23.328;2023-05-15T12:35:41;18.30;;;16.53;;
6197;SDS011;3132;42.622;23.328;2023-05-15T12:38:08;16.87;;;15.27;;
6197;SDS011;3132;42.622;23.328;2023-05-15T12:40:39;20.70;;;15.67;;
6197;SDS011;3132;42.622;23.328;2023-05-15T12:43:05;20.37;;;15.23;;
6197;SDS011;3132;42.622;23.328;2023-05-15T12:45:31;14.93;;;13.53;;
6197;SDS011;3132;42.622;23.328;2023-05-15T12:47:59;16.63;;;14.87;;
6197;SDS011;3132;42.622;23.328;2023-05-15T12:50:25;18.80;;;14.50;;
6197;SDS011;3132;42.622;23.328;2023-05-15T12:52:57;18.37;;;14.53;;
6197;SDS011;3132;42.622;23.328;2023-05-15T12:55:29;16.27;;;13.87;;
6197;SDS011;3132;42.622;23.328;2023-05-15T12:57:56;15.40;;;13.80;;
6197;SDS011;3132;42.622;23.328;2023-05-15T13:00:33;19.83;;;14.23;;
6197;SDS011;3132;42.622;23.328;2023-05-15T13:03:00;16.50;;;13.90;;
6197;SDS011;3132;42.622;23.328;2023-05-15T13:05:27;14.93;;;13.53;;
6197;SDS011;3132;42.622;23.328;2023-05-15T13:07:53;15.80;;;14.47;;
6197;SDS011;3132;42.622;23.328;2023-05-15T13:10:20;16.03;;;13.60;;
6197;SDS011;3132;42.622;23.328;2023-05-15T13:12:47;16.90;;;15.23;;
6197;SDS011;3132;42.622;23.328;2023-05-15T13:15:32;16.53;;;14.57;;
6197;SDS011;3132;42.622;23.328;2023-05-15T13:18:02;14.70;;;13.40;;
6197;SDS011;3132;42.622;23.328;2023-05-15T13:23:05;15.03;;;13.53;;
6197;SDS011;3132;42.622;23.328;2023-05-15T13:25:31;15.10;;;13.67;;
6197;SDS011;3132;42.622;23.328;2023-05-15T13:27:58;15.03;;;13.43;;
6197;SDS011;3132;42.622;23.328;2023-05-15T13:30:26;16.17;;;13.40;;
6197;SDS011;3132;42.622;23.328;2023-05-15T13:32:52;14.67;;;13.30;;
6197;SDS011;3132;42.622;23.328;2023-05-15T13:35:18;16.00;;;13.27;;
6197;SDS011;3132;42.622;23.328;2023-05-15T13:37:43;14.03;;;12.77;;
6197;SDS011;3132;42.622;23.328;2023-05-15T13:40:09;14.63;;;13.33;;
6197;SDS011;3132;42.622;23.328;2023-05-15T13:42:36;13.70;;;12.57;;
6197;SDS011;3132;42.622;23.328;2023-05-15T13:45:06;15.63;;;13.50;;
6197;SDS011;3132;42.622;23.328;2023-05-15T13:47:33;13.27;;;12.00;;
6197;SDS011;3132;42.622;23.328;2023-05-15T13:49:58;13.97;;;12.40;;
6197;SDS011;3132;42.622;23.328;2023-05-15T13:52:24;13.80;;;12.60;;
6197;SDS011;3132;42.622;23.328;2023-05-15T13:54:50;13.67;;;12.27;;
6197;SDS011;3132;42.622;23.328;2023-05-15T13:57:17;12.57;;;11.57;;
6197;SDS011;3132;42.622;23.328;2023-05-15T13:59:42;14.13;;;12.10;;
6197;SDS011;3132;42.622;23.328;2023-05-15T14:02:08;12.93;;;11.73;;
6197;SDS011;3132;42.622;23.328;2023-05-15T14:04:33;13.73;;;12.47;;
6197;SDS011;3132;42.622;23.328;2023-05-15T14:06:59;15.37;;;12.77;;
6197;SDS011;3132;42.622;23.328;2023-05-15T14:09:24;12.43;;;11.03;;
6197;SDS011;3132;42.622;23.328;2023-05-15T14:11:50;13.57;;;12.37;;
6197;SDS011;3132;42.622;23.328;2023-05-15T14:14:16;12.87;;;11.67;;
6197;SDS011;3132;42.622;23.328;2023-05-15T14:16:41;15.53;;;12.03;;
6197;SDS011;3132;42.622;23.328;2023-05-15T14:19:06;14.50;;;12.30;;
6197;SDS011;3132;42.622;23.328;2023-05-15T14:21:32;19.07;;;14.10;;
6197;SDS011;3132;42.622;23.328;2023-05-15T14:23:57;17.93;;;13.37;;
6197;SDS011;3132;42.622;23.328;2023-05-15T14:26:23;14.83;;;13.30;;
6197;SDS011;3132;42.622;23.328;2023-05-15T14:28:48;16.63;;;13.30;;
6197;SDS011;3132;42.622;23.328;2023-05-15T14:31:13;15.70;;;13.63;;
6197;SDS011;3132;42.622;23.328;2023-05-15T14:33:39;17.13;;;14.63;;
6197;SDS011;3132;42.622;23.328;2023-05-15T14:36:05;16.53;;;13.43;;
6197;SDS011;3132;42.622;23.328;2023-05-15T14:38:31;18.27;;;13.27;;
6197;SDS011;3132;42.622;23.328;2023-05-15T14:40:56;13.83;;;12.53;;
6197;SDS011;3132;42.622;23.328;2023-05-15T14:43:22;14.73;;;13.50;;
6197;SDS011;3132;42.622;23.328;2023-05-15T14:45:49;13.80;;;12.63;;
6197;SDS011;3132;42.622;23.328;2023-05-15T14:48:15;14.03;;;12.67;;
6197;SDS011;3132;42.622;23.328;2023-05-15T14:50:41;16.47;;;13.10;;
6197;SDS011;3132;42.622;23.328;2023-05-15T14:53:06;14.77;;;13.47;;
6197;SDS011;3132;42.622;23.328;2023-05-15T14:55:32;13.87;;;12.60;;
6197;SDS011;3132;42.622;23.328;2023-05-15T14:57:57;12.67;;;11.67;;
6197;SDS011;3132;42.622;23.328;2023-05-15T15:00:23;13.50;;;12.17;;
6197;SDS011;3132;42.622;23.328;2023-05-15T15:02:48;12.70;;;11.80;;
6197;SDS011;3132;42.622;23.328;2023-05-15T15:05:13;13.50;;;12.13;;
6197;SDS011;3132;42.622;23.328;2023-05-15T15:10:24;12.43;;;11.47;;
6197;SDS011;3132;42.622;23.328;2023-05-15T15:12:50;13.30;;;12.00;;
6197;SDS011;3132;42.622;23.328;2023-05-15T15:15:16;14.33;;;12.07;;